createdAt,value
2018-09-06T00:02:44.527Z,81.40
2018-09-06T00:07:47.730Z,81.22
2018-09-06T00:12:50.960Z,82.11
2018-09-06T00:17:54.122Z,82.51
2018-09-06T00:22:58.099Z,82.46
2018-09-06T00:28:01.345Z,83.10
2018-09-06T00:33:04.837Z,83.18
2018-09-06T00:38:08.147Z,84.15
2018-09-06T00:43:11.550Z,84.49
2018-09-06T00:48:14.852Z,84.65
2018-09-06T00:53:18.085Z,85.17
2018-09-06T00:58:21.292Z,85.55
2018-09-06T01:03:24.657Z,85.90
2018-09-06T01:08:27.859Z,86.23
2018-09-06T01:13:31.150Z,86.63
2018-09-06T01:18:34.399Z,86.76
2018-09-06T01:23:37.647Z,85.97
2018-09-06T01:28:41.019Z,85.79
2018-09-06T01:33:44.248Z,86.03
2018-09-06T01:38:47.508Z,85.49
2018-09-06T01:43:50.740Z,86.85
2018-09-06T01:48:53.939Z,85.51
2018-09-06T01:53:57.116Z,85.38
2018-09-06T01:59:00.341Z,85.62
2018-09-06T02:04:03.638Z,85.06
2018-09-06T02:09:07.785Z,85.40
2018-09-06T02:14:11.163Z,85.70
2018-09-06T02:19:14.399Z,86.83
2018-09-06T02:24:17.653Z,86.21
2018-09-06T02:29:20.819Z,86.59
2018-09-06T02:34:24.070Z,87.65
2018-09-06T02:39:27.341Z,86.91
2018-09-06T02:44:30.739Z,87.16
2018-09-06T02:49:34.092Z,86.85
2018-09-06T02:54:37.316Z,88.25
2018-09-06T02:59:40.948Z,87.91
2018-09-06T03:04:44.200Z,87.74
2018-09-06T03:09:47.358Z,87.89
2018-09-06T03:14:50.512Z,88.82
2018-09-06T03:19:53.858Z,88.77
2018-09-06T03:24:57.115Z,88.92
2018-09-06T03:30:00.590Z,90.76
2018-09-06T03:35:03.876Z,90.63
2018-09-06T03:40:07.329Z,90.56
2018-09-06T03:45:10.678Z,91.25
2018-09-06T03:50:14.053Z,91.23
2018-09-06T03:55:17.353Z,92.45
2018-09-06T04:00:21.393Z,93.64
2018-09-06T04:05:24.801Z,92.95
2018-09-06T04:10:28.380Z,93.85
2018-09-06T04:15:31.584Z,94.33
2018-09-06T04:20:34.845Z,94.74
2018-09-06T04:25:39.775Z,94.55
2018-09-06T04:30:43.626Z,94.79
2018-09-06T04:35:46.905Z,94.56
2018-09-06T04:40:50.104Z,94.64
2018-09-06T04:45:53.325Z,94.53
2018-09-06T04:50:56.490Z,93.40
2018-09-06T04:55:59.648Z,92.94
2018-09-06T05:01:02.975Z,93.20
2018-09-06T05:06:06.264Z,93.02
2018-09-06T05:11:09.572Z,91.96
2018-09-06T05:16:12.783Z,91.15
2018-09-06T05:21:16.145Z,90.76
2018-09-06T05:26:19.685Z,89.72
2018-09-06T05:31:23.661Z,89.37
2018-09-06T05:36:26.857Z,88.38
2018-09-06T05:41:30.062Z,87.95
2018-09-06T05:46:33.241Z,86.66
2018-09-06T05:51:36.476Z,85.78
2018-09-06T05:56:39.806Z,82.67
2018-09-06T06:01:44.160Z,81.44
2018-09-06T06:06:49.651Z,77.43
2018-09-06T06:11:53.116Z,74.29
2018-09-06T06:16:56.295Z,70.94
2018-09-06T06:21:59.525Z,68.15
2018-09-06T06:27:02.693Z,67.17
2018-09-06T06:32:05.979Z,65.70
2018-09-06T06:37:09.180Z,66.65
2018-09-06T06:42:12.434Z,69.91
2018-09-06T06:47:15.627Z,70.27
2018-09-06T06:52:18.961Z,70.14
2018-09-06T06:57:22.178Z,70.06
2018-09-06T07:02:25.450Z,69.14
2018-09-06T07:07:28.760Z,68.45
2018-09-06T07:12:32.007Z,66.30
2018-09-06T07:17:36.109Z,65.54
2018-09-06T07:22:39.350Z,66.01
2018-09-06T07:27:42.735Z,65.29
2018-09-06T07:32:45.979Z,65.24
2018-09-06T07:37:49.163Z,64.08
2018-09-06T07:42:53.343Z,64.55
2018-09-06T07:47:56.612Z,63.82
2018-09-06T07:52:59.805Z,63.18
2018-09-06T07:58:03.076Z,62.96
2018-09-06T08:03:08.434Z,64.41
2018-09-06T08:08:12.679Z,62.85
2018-09-06T08:13:16.967Z,61.23
2018-09-06T08:18:20.100Z,60.20
2018-09-06T08:23:23.582Z,59.69
2018-09-06T08:28:26.894Z,59.48
2018-09-06T08:33:31.051Z,58.87
2018-09-06T08:38:34.305Z,59.18
2018-09-06T08:43:37.437Z,57.79
2018-09-06T08:48:40.654Z,56.64
2018-09-06T08:53:43.928Z,55.63
2018-09-06T08:58:47.058Z,55.40
2018-09-06T09:03:50.528Z,53.21
2018-09-06T09:08:53.907Z,53.05
2018-09-06T09:13:57.241Z,53.28
2018-09-06T09:19:00.467Z,49.53
2018-09-06T09:24:03.883Z,44.80
2018-09-06T09:29:07.128Z,37.36
2018-09-06T09:34:10.371Z,37.75
2018-09-06T09:39:13.621Z,35.89
2018-09-06T09:44:17.727Z,34.42
2018-09-06T09:49:21.100Z,33.45
2018-09-06T09:54:24.489Z,34.92
2018-09-06T09:59:27.824Z,33.35
2018-09-06T10:04:31.068Z,35.69
2018-09-06T10:09:35.082Z,35.38
2018-09-06T10:14:38.338Z,32.97
2018-09-06T10:19:41.558Z,34.01
2018-09-06T10:24:44.962Z,32.16
2018-09-06T10:29:48.194Z,31.84
2018-09-06T10:34:51.498Z,33.57
2018-09-06T10:39:54.771Z,31.82
2018-09-06T10:44:58.113Z,32.12
2018-09-06T10:50:01.373Z,31.64
2018-09-06T10:55:04.729Z,34.72
2018-09-06T11:00:07.970Z,32.69
2018-09-06T11:05:11.273Z,33.62
2018-09-06T11:10:44.793Z,32.66
2018-09-06T11:15:48.111Z,31.70
2018-09-06T11:20:51.321Z,31.96
2018-09-06T11:25:54.501Z,34.67
2018-09-06T11:30:57.687Z,34.14
2018-09-06T11:36:00.887Z,36.94
2018-09-06T11:41:04.129Z,39.92
2018-09-06T11:46:07.638Z,40.89
2018-09-06T11:51:10.985Z,40.57
2018-09-06T11:56:14.279Z,41.86
2018-09-06T12:01:17.631Z,39.09
2018-09-06T12:06:20.816Z,38.80
2018-09-06T12:11:24.034Z,38.98
2018-09-06T12:16:27.428Z,37.55
2018-09-06T12:21:30.647Z,38.11
2018-09-06T12:26:33.922Z,35.09
2018-09-06T12:31:37.188Z,35.20
2018-09-06T12:36:40.385Z,38.14
2018-09-06T12:41:43.635Z,39.99
2018-09-06T12:46:46.896Z,38.94
2018-09-06T12:51:50.852Z,37.25
2018-09-06T12:56:54.305Z,35.69
2018-09-06T13:01:57.524Z,34.50
2018-09-06T13:07:00.767Z,33.79
2018-09-06T13:12:04.192Z,32.20
2018-09-06T13:17:07.396Z,30.77
2018-09-06T13:22:10.704Z,33.67
2018-09-06T13:27:13.945Z,33.22
2018-09-06T13:32:17.155Z,30.83
2018-09-06T13:37:20.417Z,31.84
2018-09-06T13:42:23.681Z,32.14
2018-09-06T13:47:26.852Z,33.87
2018-09-06T13:52:30.094Z,33.02
2018-09-06T13:57:33.342Z,35.52
2018-09-06T14:02:36.557Z,36.51
2018-09-06T14:07:39.732Z,33.81
2018-09-06T14:12:42.953Z,33.81
2018-09-06T14:17:46.197Z,35.14
2018-09-06T14:22:49.459Z,37.04
2018-09-06T14:27:52.804Z,35.41
2018-09-06T14:32:56.911Z,36.40
2018-09-06T14:38:00.094Z,36.71
2018-09-06T14:43:03.300Z,33.39
2018-09-06T14:48:06.936Z,34.70
2018-09-06T14:53:10.129Z,34.82
2018-09-06T14:58:14.440Z,34.81
2018-09-06T15:03:17.793Z,35.02
2018-09-06T15:08:21.163Z,35.15
2018-09-06T15:13:24.585Z,32.40
2018-09-06T15:18:28.961Z,34.30
2018-09-06T15:23:32.172Z,34.57
2018-09-06T15:28:35.324Z,35.65
2018-09-06T15:33:38.637Z,35.44
2018-09-06T15:38:41.890Z,36.49
2018-09-06T15:43:45.057Z,36.33
2018-09-06T15:48:48.261Z,36.38
2018-09-06T15:53:51.543Z,37.27
2018-09-06T15:58:54.774Z,39.36
2018-09-06T16:03:58.112Z,40.88
2018-09-06T16:09:01.366Z,40.55
2018-09-06T16:14:04.622Z,41.41
2018-09-06T16:19:07.857Z,43.17
2018-09-06T16:24:11.303Z,43.39
2018-09-06T16:29:14.464Z,44.45
2018-09-06T16:34:17.576Z,46.01
2018-09-06T16:39:20.734Z,45.62
2018-09-06T16:44:24.043Z,46.72
2018-09-06T16:49:27.288Z,47.02
2018-09-06T16:54:30.453Z,47.35
2018-09-06T16:59:33.669Z,47.61
2018-09-06T17:04:36.886Z,48.68
2018-09-06T17:09:40.170Z,48.55
2018-09-06T17:14:43.921Z,48.12
2018-09-06T17:19:47.165Z,48.62
2018-09-06T17:24:50.548Z,50.07
2018-09-06T17:29:55.282Z,50.50
2018-09-06T17:34:59.105Z,51.44
2018-09-06T17:40:03.053Z,51.90
2018-09-06T17:45:06.339Z,52.22
2018-09-06T17:50:09.518Z,51.91
2018-09-06T17:55:12.966Z,51.46
2018-09-06T18:00:16.202Z,52.21
2018-09-06T18:05:19.806Z,53.06
2018-09-06T18:10:23.236Z,52.95
2018-09-06T18:15:26.547Z,54.10
2018-09-06T18:20:29.752Z,53.77
2018-09-06T18:25:33.066Z,53.66
2018-09-06T18:30:36.324Z,54.10
2018-09-06T18:35:39.632Z,54.28
2018-09-06T18:40:42.868Z,54.78
2018-09-06T18:45:46.099Z,53.73
2018-09-06T18:50:49.723Z,54.75
2018-09-06T18:55:53.223Z,54.75
2018-09-06T19:00:58.128Z,55.74
2018-09-06T19:06:01.464Z,56.07
2018-09-06T19:11:04.706Z,55.47
2018-09-06T19:16:08.051Z,56.37
2018-09-06T19:21:11.415Z,56.71
2018-09-06T19:26:14.912Z,56.35
2018-09-06T19:31:18.091Z,56.21
2018-09-06T19:36:21.385Z,56.31
2018-09-06T19:41:24.903Z,56.57
2018-09-06T19:46:28.119Z,55.98
2018-09-06T19:51:31.635Z,55.74
2018-09-06T19:56:34.828Z,56.42
2018-09-06T20:01:38.054Z,56.95
2018-09-06T20:06:41.363Z,57.10
2018-09-06T20:11:44.505Z,57.16
2018-09-06T20:16:48.246Z,58.12
2018-09-06T20:21:51.725Z,58.37
2018-09-06T20:26:55.318Z,58.46
2018-09-06T20:31:58.577Z,58.53
2018-09-06T20:37:01.879Z,59.82
2018-09-06T20:42:08.372Z,59.29
2018-09-06T20:47:14.090Z,59.43
2018-09-06T20:52:20.148Z,60.12
2018-09-06T20:57:26.376Z,60.96
2018-09-06T21:02:32.177Z,62.03
2018-09-06T21:07:38.865Z,61.56
2018-09-06T21:12:45.107Z,62.16
2018-09-06T21:17:51.229Z,63.33
2018-09-06T21:22:57.726Z,63.99
2018-09-06T21:28:04.422Z,64.43
2018-09-06T21:33:07.697Z,64.90
2018-09-06T21:38:11.005Z,64.22
2018-09-06T21:43:14.406Z,63.87
2018-09-06T21:48:17.703Z,64.45
2018-09-06T21:53:20.953Z,63.91
2018-09-06T21:58:24.519Z,65.19
2018-09-06T22:03:27.830Z,65.52
2018-09-06T22:08:31.042Z,65.60
2018-09-06T22:13:34.322Z,66.49
2018-09-06T22:18:37.563Z,67.42
2018-09-06T22:23:41.185Z,67.27
2018-09-06T22:28:44.464Z,67.50
2018-09-06T22:33:47.662Z,68.34
2018-09-06T22:38:50.968Z,68.45
2018-09-06T22:43:54.282Z,69.02
2018-09-06T22:48:57.507Z,68.08
2018-09-06T22:54:00.636Z,68.52
2018-09-06T22:59:04.326Z,69.90
2018-09-06T23:04:07.681Z,70.47
2018-09-06T23:09:13.789Z,70.53
2018-09-06T23:14:17.069Z,70.56
2018-09-06T23:19:20.335Z,70.29
2018-09-06T23:24:23.706Z,69.97
2018-09-06T23:29:27.210Z,70.16
2018-09-06T23:34:30.543Z,70.13
2018-09-06T23:39:33.961Z,70.22
2018-09-06T23:44:37.198Z,71.30
2018-09-06T23:49:42.230Z,71.94
2018-09-06T23:54:45.457Z,72.93
2018-09-06T23:59:48.788Z,73.95
